Terminal Aerodrome Forecast
Issued by NWS

Home | Current Version | Previous Version | Text Only | Print | Product List | Glossary On
Versions: 1 2 3 4 5 6 7 8 9 10 11 12 13
000
FTUS44 KHGX 182320
TAFCXO
TAF
KCXO 182320Z 1900/1924 VRB02KT P6SM FEW050 FEW250
     FM191000 VRB01KT 4SM BR SCT250
     FM191500 10003KT P6SM SCT035 BKN250=

USA.gov is the U.S. government's official web portal to all federal, state and local government web resources and services.